sensor_id;sensor_type;location;lat;lon;timestamp;P1;durP1;ratioP1;P2;durP2;ratioP2
70535;SDS011;58089;48.752;11.338;2023-11-22T00:01:48;6.77;;;2.80;;
70535;SDS011;58089;48.752;11.338;2023-11-22T00:04:14;7.95;;;3.28;;
70535;SDS011;58089;48.752;11.338;2023-11-22T00:06:39;9.33;;;3.20;;
70535;SDS011;58089;48.752;11.338;2023-11-22T00:09:04;10.17;;;3.83;;
70535;SDS011;58089;48.752;11.338;2023-11-22T00:11:30;7.83;;;3.50;;
70535;SDS011;58089;48.752;11.338;2023-11-22T00:13:55;9.37;;;3.70;;
70535;SDS011;58089;48.752;11.338;2023-11-22T00:16:20;8.23;;;3.40;;
70535;SDS011;58089;48.752;11.338;2023-11-22T00:18:46;10.63;;;3.97;;
70535;SDS011;58089;48.752;11.338;2023-11-22T00:21:11;8.60;;;3.38;;
70535;SDS011;58089;48.752;11.338;2023-11-22T00:23:37;9.17;;;3.43;;
70535;SDS011;58089;48.752;11.338;2023-11-22T00:26:03;9.37;;;3.10;;
70535;SDS011;58089;48.752;11.338;2023-11-22T00:28:30;9.02;;;3.28;;
70535;SDS011;58089;48.752;11.338;2023-11-22T00:30:55;10.50;;;3.57;;
70535;SDS011;58089;48.752;11.338;2023-11-22T00:33:21;9.87;;;3.77;;
70535;SDS011;58089;48.752;11.338;2023-11-22T00:35:46;9.43;;;3.40;;
70535;SDS011;58089;48.752;11.338;2023-11-22T00:38:12;10.52;;;3.80;;
70535;SDS011;58089;48.752;11.338;2023-11-22T00:40:37;8.83;;;3.90;;
70535;SDS011;58089;48.752;11.338;2023-11-22T00:43:02;9.77;;;4.00;;
70535;SDS011;58089;48.752;11.338;2023-11-22T00:45:28;10.50;;;3.83;;
70535;SDS011;58089;48.752;11.338;2023-11-22T00:47:54;8.38;;;3.60;;
70535;SDS011;58089;48.752;11.338;2023-11-22T00:50:20;9.10;;;3.70;;
70535;SDS011;58089;48.752;11.338;2023-11-22T00:52:48;9.13;;;3.70;;
70535;SDS011;58089;48.752;11.338;2023-11-22T00:55:14;10.45;;;3.75;;
70535;SDS011;58089;48.752;11.338;2023-11-22T00:57:40;9.10;;;4.10;;
70535;SDS011;58089;48.752;11.338;2023-11-22T01:00:05;11.48;;;3.53;;
70535;SDS011;58089;48.752;11.338;2023-11-22T01:02:34;11.55;;;4.10;;
70535;SDS011;58089;48.752;11.338;2023-11-22T01:05:04;11.03;;;3.83;;
70535;SDS011;58089;48.752;11.338;2023-11-22T01:07:32;11.07;;;3.63;;
70535;SDS011;58089;48.752;11.338;2023-11-22T01:09:58;12.13;;;3.70;;
70535;SDS011;58089;48.752;11.338;2023-11-22T01:12:23;9.93;;;4.13;;
70535;SDS011;58089;48.752;11.338;2023-11-22T01:14:48;10.13;;;4.37;;
70535;SDS011;58089;48.752;11.338;2023-11-22T01:17:13;9.53;;;3.43;;
70535;SDS011;58089;48.752;11.338;2023-11-22T01:19:39;10.07;;;3.90;;
70535;SDS011;58089;48.752;11.338;2023-11-22T01:22:04;9.83;;;3.60;;
70535;SDS011;58089;48.752;11.338;2023-11-22T01:24:29;10.00;;;3.10;;
70535;SDS011;58089;48.752;11.338;2023-11-22T01:26:55;7.17;;;3.07;;
70535;SDS011;58089;48.752;11.338;2023-11-22T01:29:20;7.85;;;2.72;;
70535;SDS011;58089;48.752;11.338;2023-11-22T01:31:46;8.83;;;3.27;;
70535;SDS011;58089;48.752;11.338;2023-11-22T01:34:12;9.95;;;3.30;;
70535;SDS011;58089;48.752;11.338;2023-11-22T01:36:41;7.00;;;2.80;;
70535;SDS011;58089;48.752;11.338;2023-11-22T01:39:08;8.02;;;3.38;;
70535;SDS011;58089;48.752;11.338;2023-11-22T01:41:33;8.13;;;3.27;;
70535;SDS011;58089;48.752;11.338;2023-11-22T01:43:59;8.30;;;3.70;;
70535;SDS011;58089;48.752;11.338;2023-11-22T01:46:25;9.30;;;3.88;;
70535;SDS011;58089;48.752;11.338;2023-11-22T01:48:51;9.07;;;3.50;;
70535;SDS011;58089;48.752;11.338;2023-11-22T01:51:23;8.23;;;3.10;;
70535;SDS011;58089;48.752;11.338;2023-11-22T01:53:49;6.75;;;2.78;;
70535;SDS011;58089;48.752;11.338;2023-11-22T01:56:18;7.00;;;2.92;;
70535;SDS011;58089;48.752;11.338;2023-11-22T01:58:45;7.07;;;2.50;;
70535;SDS011;58089;48.752;11.338;2023-11-22T02:01:10;6.63;;;2.70;;
70535;SDS011;58089;48.752;11.338;2023-11-22T02:03:37;6.63;;;2.42;;
70535;SDS011;58089;48.752;11.338;2023-11-22T02:06:03;7.50;;;2.47;;
70535;SDS011;58089;48.752;11.338;2023-11-22T02:08:30;7.85;;;2.50;;
70535;SDS011;58089;48.752;11.338;2023-11-22T02:10:59;7.83;;;2.50;;
70535;SDS011;58089;48.752;11.338;2023-11-22T02:13:25;5.75;;;2.30;;
70535;SDS011;58089;48.752;11.338;2023-11-22T02:15:51;6.30;;;2.50;;
70535;SDS011;58089;48.752;11.338;2023-11-22T02:18:17;6.97;;;2.67;;
70535;SDS011;58089;48.752;11.338;2023-11-22T02:20:43;7.70;;;2.07;;
70535;SDS011;58089;48.752;11.338;2023-11-22T02:23:08;7.03;;;2.40;;
70535;SDS011;58089;48.752;11.338;2023-11-22T02:25:34;6.97;;;2.50;;
70535;SDS011;58089;48.752;11.338;2023-11-22T02:28:00;5.93;;;2.28;;
70535;SDS011;58089;48.752;11.338;2023-11-22T02:30:27;6.05;;;2.42;;
70535;SDS011;58089;48.752;11.338;2023-11-22T02:32:52;7.30;;;2.67;;
70535;SDS011;58089;48.752;11.338;2023-11-22T02:35:18;6.20;;;2.50;;
70535;SDS011;58089;48.752;11.338;2023-11-22T02:37:43;5.93;;;2.50;;
70535;SDS011;58089;48.752;11.338;2023-11-22T02:40:17;5.75;;;2.33;;
70535;SDS011;58089;48.752;11.338;2023-11-22T02:42:44;6.33;;;2.67;;
70535;SDS011;58089;48.752;11.338;2023-11-22T02:45:16;7.40;;;3.65;;
70535;SDS011;58089;48.752;11.338;2023-11-22T02:47:43;7.60;;;3.33;;
70535;SDS011;58089;48.752;11.338;2023-11-22T02:50:09;8.60;;;3.95;;
70535;SDS011;58089;48.752;11.338;2023-11-22T02:52:36;8.55;;;3.63;;
70535;SDS011;58089;48.752;11.338;2023-11-22T02:55:02;7.43;;;3.67;;
70535;SDS011;58089;48.752;11.338;2023-11-22T02:57:30;7.47;;;3.50;;
70535;SDS011;58089;48.752;11.338;2023-11-22T02:59:56;8.45;;;4.05;;
70535;SDS011;58089;48.752;11.338;2023-11-22T03:02:21;7.88;;;3.20;;
70535;SDS011;58089;48.752;11.338;2023-11-22T03:04:47;7.43;;;3.60;;
70535;SDS011;58089;48.752;11.338;2023-11-22T03:07:12;8.07;;;3.73;;
70535;SDS011;58089;48.752;11.338;2023-11-22T03:09:37;8.33;;;3.90;;
70535;SDS011;58089;48.752;11.338;2023-11-22T03:12:03;7.93;;;3.90;;
70535;SDS011;58089;48.752;11.338;2023-11-22T03:14:28;8.83;;;4.27;;
70535;SDS011;58089;48.752;11.338;2023-11-22T03:16:56;8.97;;;4.53;;
70535;SDS011;58089;48.752;11.338;2023-11-22T03:19:22;7.50;;;3.78;;
70535;SDS011;58089;48.752;11.338;2023-11-22T03:21:49;9.25;;;4.60;;
70535;SDS011;58089;48.752;11.338;2023-11-22T03:24:14;9.47;;;4.77;;
70535;SDS011;58089;48.752;11.338;2023-11-22T03:26:40;9.93;;;4.95;;
70535;SDS011;58089;48.752;11.338;2023-11-22T03:29:06;9.10;;;4.30;;
70535;SDS011;58089;48.752;11.338;2023-11-22T03:31:31;8.77;;;4.60;;
70535;SDS011;58089;48.752;11.338;2023-11-22T03:33:57;9.00;;;4.60;;
70535;SDS011;58089;48.752;11.338;2023-11-22T03:36:22;9.77;;;4.90;;
70535;SDS011;58089;48.752;11.338;2023-11-22T03:38:48;11.37;;;5.33;;
70535;SDS011;58089;48.752;11.338;2023-11-22T03:41:13;9.77;;;4.77;;
70535;SDS011;58089;48.752;11.338;2023-11-22T03:43:39;9.20;;;4.90;;
70535;SDS011;58089;48.752;11.338;2023-11-22T03:46:04;10.60;;;4.70;;
70535;SDS011;58089;48.752;11.338;2023-11-22T03:48:29;9.07;;;4.50;;
70535;SDS011;58089;48.752;11.338;2023-11-22T03:50:54;9.13;;;4.90;;
70535;SDS011;58089;48.752;11.338;2023-11-22T03:53:20;9.80;;;4.83;;
70535;SDS011;58089;48.752;11.338;2023-11-22T03:55:47;10.02;;;4.70;;
70535;SDS011;58089;48.752;11.338;2023-11-22T03:58:13;8.25;;;4.18;;
70535;SDS011;58089;48.752;11.338;2023-11-22T04:00:38;10.20;;;4.90;;
70535;SDS011;58089;48.752;11.338;2023-11-22T04:03:03;8.73;;;4.37;;
70535;SDS011;58089;48.752;11.338;2023-11-22T04:05:29;9.33;;;4.73;;
70535;SDS011;58089;48.752;11.338;2023-11-22T04:07:54;9.80;;;4.93;;
70535;SDS011;58089;48.752;11.338;2023-11-22T04:10:21;9.60;;;4.88;;
70535;SDS011;58089;48.752;11.338;2023-11-22T04:12:47;9.93;;;4.72;;
70535;SDS011;58089;48.752;11.338;2023-11-22T04:15:13;10.37;;;4.50;;
70535;SDS011;58089;48.752;11.338;2023-11-22T04:17:39;11.63;;;5.93;;
70535;SDS011;58089;48.752;11.338;2023-11-22T04:20:06;8.15;;;3.97;;
70535;SDS011;58089;48.752;11.338;2023-11-22T04:22:34;9.32;;;4.55;;
70535;SDS011;58089;48.752;11.338;2023-11-22T04:25:00;7.77;;;3.63;;
70535;SDS011;58089;48.752;11.338;2023-11-22T04:27:27;11.10;;;4.43;;
70535;SDS011;58089;48.752;11.338;2023-11-22T04:29:52;8.57;;;4.20;;
70535;SDS011;58089;48.752;11.338;2023-11-22T04:32:18;8.48;;;4.47;;
70535;SDS011;58089;48.752;11.338;2023-11-22T04:34:43;8.77;;;4.63;;
70535;SDS011;58089;48.752;11.338;2023-11-22T04:37:08;8.47;;;4.10;;
70535;SDS011;58089;48.752;11.338;2023-11-22T04:39:33;9.73;;;4.43;;
70535;SDS011;58089;48.752;11.338;2023-11-22T04:41:59;8.57;;;4.13;;
70535;SDS011;58089;48.752;11.338;2023-11-22T04:44:25;9.48;;;4.72;;
70535;SDS011;58089;48.752;11.338;2023-11-22T04:46:50;8.87;;;4.67;;
70535;SDS011;58089;48.752;11.338;2023-11-22T04:49:16;11.60;;;4.43;;
70535;SDS011;58089;48.752;11.338;2023-11-22T04:51:42;10.63;;;4.50;;
70535;SDS011;58089;48.752;11.338;2023-11-22T04:54:08;8.13;;;3.92;;
70535;SDS011;58089;48.752;11.338;2023-11-22T04:56:33;9.57;;;4.20;;
70535;SDS011;58089;48.752;11.338;2023-11-22T04:58:59;9.70;;;4.47;;
70535;SDS011;58089;48.752;11.338;2023-11-22T05:01:24;10.57;;;4.00;;
70535;SDS011;58089;48.752;11.338;2023-11-22T05:03:50;7.32;;;3.90;;
70535;SDS011;58089;48.752;11.338;2023-11-22T05:06:16;7.07;;;3.03;;
70535;SDS011;58089;48.752;11.338;2023-11-22T05:08:42;9.10;;;3.72;;
70535;SDS011;58089;48.752;11.338;2023-11-22T05:11:07;8.27;;;3.90;;
70535;SDS011;58089;48.752;11.338;2023-11-22T05:13:33;7.17;;;3.27;;
70535;SDS011;58089;48.752;11.338;2023-11-22T05:15:58;7.23;;;3.20;;
70535;SDS011;58089;48.752;11.338;2023-11-22T05:18:24;10.00;;;4.23;;
70535;SDS011;58089;48.752;11.338;2023-11-22T05:20:50;9.10;;;3.60;;
70535;SDS011;58089;48.752;11.338;2023-11-22T05:23:15;8.13;;;3.53;;
70535;SDS011;58089;48.752;11.338;2023-11-22T05:25:40;11.40;;;4.03;;
70535;SDS011;58089;48.752;11.338;2023-11-22T05:28:06;7.03;;;3.20;;
70535;SDS011;58089;48.752;11.338;2023-11-22T05:30:31;7.77;;;3.60;;
70535;SDS011;58089;48.752;11.338;2023-11-22T05:32:56;7.27;;;3.43;;
70535;SDS011;58089;48.752;11.338;2023-11-22T05:35:22;7.40;;;3.37;;
70535;SDS011;58089;48.752;11.338;2023-11-22T05:37:47;8.63;;;3.60;;
70535;SDS011;58089;48.752;11.338;2023-11-22T05:40:13;7.93;;;3.45;;
70535;SDS011;58089;48.752;11.338;2023-11-22T05:42:38;7.77;;;3.37;;
70535;SDS011;58089;48.752;11.338;2023-11-22T05:45:04;8.30;;;3.10;;
70535;SDS011;58089;48.752;11.338;2023-11-22T05:47:31;8.02;;;3.95;;
70535;SDS011;58089;48.752;11.338;2023-11-22T05:49:56;8.10;;;3.70;;
70535;SDS011;58089;48.752;11.338;2023-11-22T05:52:21;8.17;;;3.63;;
70535;SDS011;58089;48.752;11.338;2023-11-22T05:54:48;7.38;;;3.35;;
70535;SDS011;58089;48.752;11.338;2023-11-22T05:57:14;8.33;;;3.73;;
70535;SDS011;58089;48.752;11.338;2023-11-22T05:59:40;7.70;;;3.33;;
70535;SDS011;58089;48.752;11.338;2023-11-22T06:02:05;8.23;;;3.90;;
70535;SDS011;58089;48.752;11.338;2023-11-22T06:04:31;7.50;;;3.72;;
70535;SDS011;58089;48.752;11.338;2023-11-22T06:06:56;7.87;;;3.53;;
70535;SDS011;58089;48.752;11.338;2023-11-22T06:09:21;7.70;;;3.67;;
70535;SDS011;58089;48.752;11.338;2023-11-22T06:11:48;7.95;;;3.75;;
70535;SDS011;58089;48.752;11.338;2023-11-22T06:14:13;8.37;;;3.77;;
70535;SDS011;58089;48.752;11.338;2023-11-22T06:16:39;7.67;;;3.47;;
70535;SDS011;58089;48.752;11.338;2023-11-22T06:19:04;8.10;;;3.30;;
70535;SDS011;58089;48.752;11.338;2023-11-22T06:21:29;7.17;;;3.10;;
70535;SDS011;58089;48.752;11.338;2023-11-22T06:23:55;8.73;;;3.63;;
70535;SDS011;58089;48.752;11.338;2023-11-22T06:26:22;7.13;;;3.22;;
70535;SDS011;58089;48.752;11.338;2023-11-22T06:28:48;8.23;;;3.77;;
70535;SDS011;58089;48.752;11.338;2023-11-22T06:31:14;8.65;;;3.38;;
70535;SDS011;58089;48.752;11.338;2023-11-22T06:33:40;6.37;;;3.13;;
70535;SDS011;58089;48.752;11.338;2023-11-22T06:36:05;7.57;;;3.60;;
70535;SDS011;58089;48.752;11.338;2023-11-22T06:38:31;6.88;;;3.28;;
70535;SDS011;58089;48.752;11.338;2023-11-22T06:40:56;6.90;;;3.00;;
70535;SDS011;58089;48.752;11.338;2023-11-22T06:43:21;7.37;;;3.13;;
70535;SDS011;58089;48.752;11.338;2023-11-22T06:45:47;7.40;;;3.25;;
70535;SDS011;58089;48.752;11.338;2023-11-22T06:48:13;6.80;;;2.80;;
70535;SDS011;58089;48.752;11.338;2023-11-22T06:50:38;9.07;;;3.03;;
70535;SDS011;58089;48.752;11.338;2023-11-22T06:53:04;6.40;;;2.97;;
70535;SDS011;58089;48.752;11.338;2023-11-22T06:55:31;7.32;;;3.17;;
70535;SDS011;58089;48.752;11.338;2023-11-22T06:57:57;6.45;;;2.75;;
70535;SDS011;58089;48.752;11.338;2023-11-22T07:00:23;6.80;;;2.63;;
70535;SDS011;58089;48.752;11.338;2023-11-22T07:02:48;6.37;;;2.77;;
70535;SDS011;58089;48.752;11.338;2023-11-22T07:05:14;6.80;;;2.77;;
70535;SDS011;58089;48.752;11.338;2023-11-22T07:07:39;5.73;;;2.53;;
70535;SDS011;58089;48.752;11.338;2023-11-22T07:10:05;6.27;;;2.43;;
70535;SDS011;58089;48.752;11.338;2023-11-22T07:12:34;5.38;;;2.22;;
70535;SDS011;58089;48.752;11.338;2023-11-22T07:15:02;6.10;;;2.65;;
70535;SDS011;58089;48.752;11.338;2023-11-22T07:17:28;6.47;;;2.50;;
70535;SDS011;58089;48.752;11.338;2023-11-22T07:19:54;6.25;;;2.55;;
70535;SDS011;58089;48.752;11.338;2023-11-22T07:22:19;5.78;;;2.47;;
70535;SDS011;58089;48.752;11.338;2023-11-22T07:24:47;6.73;;;2.83;;
70535;SDS011;58089;48.752;11.338;2023-11-22T07:27:16;6.60;;;2.85;;
70535;SDS011;58089;48.752;11.338;2023-11-22T07:29:42;6.32;;;3.15;;
70535;SDS011;58089;48.752;11.338;2023-11-22T07:32:08;7.53;;;3.72;;
70535;SDS011;58089;48.752;11.338;2023-11-22T07:34:34;6.73;;;3.40;;
70535;SDS011;58089;48.752;11.338;2023-11-22T07:37:00;7.82;;;3.38;;
70535;SDS011;58089;48.752;11.338;2023-11-22T07:39:26;7.37;;;3.00;;
70535;SDS011;58089;48.752;11.338;2023-11-22T07:41:54;8.38;;;3.70;;
70535;SDS011;58089;48.752;11.338;2023-11-22T07:44:23;7.63;;;3.65;;
70535;SDS011;58089;48.752;11.338;2023-11-22T07:46:49;7.10;;;3.58;;
70535;SDS011;58089;48.752;11.338;2023-11-22T07:49:15;8.10;;;3.63;;
70535;SDS011;58089;48.752;11.338;2023-11-22T07:51:40;7.95;;;3.83;;
70535;SDS011;58089;48.752;11.338;2023-11-22T07:54:06;7.40;;;3.80;;
70535;SDS011;58089;48.752;11.338;2023-11-22T07:56:32;10.80;;;4.00;;
70535;SDS011;58089;48.752;11.338;2023-11-22T07:58:58;8.43;;;4.10;;
70535;SDS011;58089;48.752;11.338;2023-11-22T08:01:23;8.05;;;4.00;;
70535;SDS011;58089;48.752;11.338;2023-11-22T08:03:50;7.65;;;3.88;;
70535;SDS011;58089;48.752;11.338;2023-11-22T08:06:16;8.70;;;4.10;;
70535;SDS011;58089;48.752;11.338;2023-11-22T08:08:42;9.03;;;4.30;;
70535;SDS011;58089;48.752;11.338;2023-11-22T08:11:11;9.80;;;3.80;;
70535;SDS011;58089;48.752;11.338;2023-11-22T08:13:42;8.95;;;4.13;;
70535;SDS011;58089;48.752;11.338;2023-11-22T08:16:08;10.20;;;4.70;;
70535;SDS011;58089;48.752;11.338;2023-11-22T08:18:34;9.70;;;3.93;;
70535;SDS011;58089;48.752;11.338;2023-11-22T08:21:00;9.32;;;4.50;;
70535;SDS011;58089;48.752;11.338;2023-11-22T08:23:25;8.50;;;4.40;;
70535;SDS011;58089;48.752;11.338;2023-11-22T08:25:51;8.63;;;5.18;;
70535;SDS011;58089;48.752;11.338;2023-11-22T08:28:18;8.55;;;4.10;;
70535;SDS011;58089;48.752;11.338;2023-11-22T08:30:43;11.33;;;6.17;;
70535;SDS011;58089;48.752;11.338;2023-11-22T08:33:09;9.00;;;4.85;;
70535;SDS011;58089;48.752;11.338;2023-11-22T08:35:35;9.37;;;4.20;;
70535;SDS011;58089;48.752;11.338;2023-11-22T08:38:01;10.90;;;4.47;;
70535;SDS011;58089;48.752;11.338;2023-11-22T08:40:28;9.30;;;4.65;;
70535;SDS011;58089;48.752;11.338;2023-11-22T08:42:54;8.13;;;4.20;;
70535;SDS011;58089;48.752;11.338;2023-11-22T08:45:19;11.73;;;4.20;;
70535;SDS011;58089;48.752;11.338;2023-11-22T08:47:45;10.50;;;4.93;;
70535;SDS011;58089;48.752;11.338;2023-11-22T08:50:11;10.45;;;4.90;;
70535;SDS011;58089;48.752;11.338;2023-11-22T08:52:39;8.77;;;4.33;;
70535;SDS011;58089;48.752;11.338;2023-11-22T08:55:07;10.10;;;4.40;;
70535;SDS011;58089;48.752;11.338;2023-11-22T08:57:37;9.93;;;4.65;;
70535;SDS011;58089;48.752;11.338;2023-11-22T09:00:03;15.20;;;6.63;;
70535;SDS011;58089;48.752;11.338;2023-11-22T09:02:33;11.40;;;6.30;;
70535;SDS011;58089;48.752;11.338;2023-11-22T09:04:59;8.82;;;4.50;;
70535;SDS011;58089;48.752;11.338;2023-11-22T09:07:24;9.00;;;4.10;;
70535;SDS011;58089;48.752;11.338;2023-11-22T09:09:51;8.20;;;4.03;;
70535;SDS011;58089;48.752;11.338;2023-11-22T09:12:17;8.50;;;4.00;;
70535;SDS011;58089;48.752;11.338;2023-11-22T09:14:44;8.98;;;4.22;;
70535;SDS011;58089;48.752;11.338;2023-11-22T09:17:10;8.80;;;4.13;;
70535;SDS011;58089;48.752;11.338;2023-11-22T09:19:35;7.63;;;3.70;;
70535;SDS011;58089;48.752;11.338;2023-11-22T09:22:02;9.65;;;4.05;;
70535;SDS011;58089;48.752;11.338;2023-11-22T09:24:27;9.30;;;4.83;;
70535;SDS011;58089;48.752;11.338;2023-11-22T09:26:53;9.37;;;4.23;;
70535;SDS011;58089;48.752;11.338;2023-11-22T09:29:18;10.90;;;5.27;;
70535;SDS011;58089;48.752;11.338;2023-11-22T09:31:44;10.13;;;5.10;;
70535;SDS011;58089;48.752;11.338;2023-11-22T09:34:12;8.33;;;4.07;;
70535;SDS011;58089;48.752;11.338;2023-11-22T09:36:38;9.35;;;4.47;;
70535;SDS011;58089;48.752;11.338;2023-11-22T09:39:04;8.95;;;4.13;;
70535;SDS011;58089;48.752;11.338;2023-11-22T09:41:33;7.93;;;3.90;;
70535;SDS011;58089;48.752;11.338;2023-11-22T09:44:01;9.43;;;4.30;;
70535;SDS011;58089;48.752;11.338;2023-11-22T09:46:27;7.85;;;4.05;;
70535;SDS011;58089;48.752;11.338;2023-11-22T09:48:54;9.75;;;5.25;;
70535;SDS011;58089;48.752;11.338;2023-11-22T09:51:26;9.63;;;4.78;;
70535;SDS011;58089;48.752;11.338;2023-11-22T09:53:54;9.23;;;4.23;;
70535;SDS011;58089;48.752;11.338;2023-11-22T09:56:21;8.40;;;4.15;;
70535;SDS011;58089;48.752;11.338;2023-11-22T09:58:48;7.90;;;4.10;;
70535;SDS011;58089;48.752;11.338;2023-11-22T10:01:19;9.02;;;4.20;;
70535;SDS011;58089;48.752;11.338;2023-11-22T10:03:46;9.27;;;4.25;;
70535;SDS011;58089;48.752;11.338;2023-11-22T10:06:11;13.20;;;7.13;;
70535;SDS011;58089;48.752;11.338;2023-11-22T10:08:36;9.00;;;4.27;;
70535;SDS011;58089;48.752;11.338;2023-11-22T10:11:03;11.95;;;5.38;;
70535;SDS011;58089;48.752;11.338;2023-11-22T10:13:29;10.05;;;4.75;;
70535;SDS011;58089;48.752;11.338;2023-11-22T10:15:54;9.03;;;4.00;;
70535;SDS011;58089;48.752;11.338;2023-11-22T10:18:20;8.23;;;4.20;;
70535;SDS011;58089;48.752;11.338;2023-11-22T10:20:47;8.00;;;4.13;;
70535;SDS011;58089;48.752;11.338;2023-11-22T10:23:14;10.45;;;5.10;;
70535;SDS011;58089;48.752;11.338;2023-11-22T10:25:46;21.05;;;5.45;;
70535;SDS011;58089;48.752;11.338;2023-11-22T10:28:16;8.37;;;4.50;;
70535;SDS011;58089;48.752;11.338;2023-11-22T10:30:46;8.95;;;4.85;;
70535;SDS011;58089;48.752;11.338;2023-11-22T10:33:11;13.75;;;8.45;;
70535;SDS011;58089;48.752;11.338;2023-11-22T10:35:41;9.52;;;4.60;;
70535;SDS011;58089;48.752;11.338;2023-11-22T10:38:08;9.38;;;4.32;;
70535;SDS011;58089;48.752;11.338;2023-11-22T10:40:34;14.90;;;4.80;;
70535;SDS011;58089;48.752;11.338;2023-11-22T10:42:59;11.90;;;6.63;;
70535;SDS011;58089;48.752;11.338;2023-11-22T10:45:26;11.15;;;4.72;;
70535;SDS011;58089;48.752;11.338;2023-11-22T10:47:55;8.38;;;4.28;;
70535;SDS011;58089;48.752;11.338;2023-11-22T10:50:21;7.63;;;3.93;;
70535;SDS011;58089;48.752;11.338;2023-11-22T10:52:47;9.50;;;4.40;;
70535;SDS011;58089;48.752;11.338;2023-11-22T10:55:14;7.40;;;3.53;;
70535;SDS011;58089;48.752;11.338;2023-11-22T10:57:46;8.07;;;4.00;;
70535;SDS011;58089;48.752;11.338;2023-11-22T11:00:16;8.03;;;3.63;;
70535;SDS011;58089;48.752;11.338;2023-11-22T11:02:46;8.27;;;3.90;;
70535;SDS011;58089;48.752;11.338;2023-11-22T11:05:15;8.95;;;4.25;;
70535;SDS011;58089;48.752;11.338;2023-11-22T11:07:48;8.43;;;4.50;;
70535;SDS011;58089;48.752;11.338;2023-11-22T11:10:16;9.27;;;4.00;;
70535;SDS011;58089;48.752;11.338;2023-11-22T11:12:44;8.53;;;3.70;;
70535;SDS011;58089;48.752;11.338;2023-11-22T11:15:10;8.45;;;4.25;;
70535;SDS011;58089;48.752;11.338;2023-11-22T11:17:36;7.15;;;3.67;;
70535;SDS011;58089;48.752;11.338;2023-11-22T11:20:04;8.23;;;4.10;;
70535;SDS011;58089;48.752;11.338;2023-11-22T11:22:32;9.13;;;5.03;;
70535;SDS011;58089;48.752;11.338;2023-11-22T11:25:05;7.93;;;3.80;;
70535;SDS011;58089;48.752;11.338;2023-11-22T11:27:34;8.65;;;3.95;;
70535;SDS011;58089;48.752;11.338;2023-11-22T11:32:57;9.18;;;4.00;;
70535;SDS011;58089;48.752;11.338;2023-11-22T11:35:37;8.93;;;4.40;;
70535;SDS011;58089;48.752;11.338;2023-11-22T11:38:02;9.93;;;4.38;;
70535;SDS011;58089;48.752;11.338;2023-11-22T11:40:31;7.85;;;3.58;;
70535;SDS011;58089;48.752;11.338;2023-11-22T11:42:59;7.60;;;3.58;;
70535;SDS011;58089;48.752;11.338;2023-11-22T11:45:24;8.27;;;4.03;;
70535;SDS011;58089;48.752;11.338;2023-11-22T11:47:49;7.43;;;3.70;;
70535;SDS011;58089;48.752;11.338;2023-11-22T11:50:16;8.38;;;4.00;;
70535;SDS011;58089;48.752;11.338;2023-11-22T11:52:41;7.90;;;4.03;;
70535;SDS011;58089;48.752;11.338;2023-11-22T11:55:07;9.13;;;4.47;;
70535;SDS011;58089;48.752;11.338;2023-11-22T11:57:32;8.65;;;4.10;;
70535;SDS011;58089;48.752;11.338;2023-11-22T11:59:58;9.27;;;4.00;;
70535;SDS011;58089;48.752;11.338;2023-11-22T12:02:24;10.35;;;4.50;;
70535;SDS011;58089;48.752;11.338;2023-11-22T12:04:49;7.73;;;3.53;;
70535;SDS011;58089;48.752;11.338;2023-11-22T12:07:15;8.93;;;3.73;;
70535;SDS011;58089;48.752;11.338;2023-11-22T12:09:40;8.40;;;3.93;;
70535;SDS011;58089;48.752;11.338;2023-11-22T12:12:06;8.65;;;3.78;;
70535;SDS011;58089;48.752;11.338;2023-11-22T12:14:31;9.07;;;4.47;;
70535;SDS011;58089;48.752;11.338;2023-11-22T12:16:58;9.43;;;3.80;;
70535;SDS011;58089;48.752;11.338;2023-11-22T12:19:24;7.80;;;3.45;;
70535;SDS011;58089;48.752;11.338;2023-11-22T12:21:52;8.65;;;4.10;;
70535;SDS011;58089;48.752;11.338;2023-11-22T12:24:17;8.93;;;3.97;;
70535;SDS011;58089;48.752;11.338;2023-11-22T12:26:46;7.85;;;3.97;;
70535;SDS011;58089;48.752;11.338;2023-11-22T12:29:14;7.60;;;3.40;;
70535;SDS011;58089;48.752;11.338;2023-11-22T12:31:49;9.07;;;4.60;;
70535;SDS011;58089;48.752;11.338;2023-11-22T12:34:17;8.32;;;4.13;;
70535;SDS011;58089;48.752;11.338;2023-11-22T12:36:43;8.50;;;4.20;;
70535;SDS011;58089;48.752;11.338;2023-11-22T12:39:10;11.07;;;4.85;;
70535;SDS011;58089;48.752;11.338;2023-11-22T12:41:51;9.90;;;4.13;;
70535;SDS011;58089;48.752;11.338;2023-11-22T12:44:17;7.72;;;3.80;;
70535;SDS011;58089;48.752;11.338;2023-11-22T12:46:47;8.23;;;4.13;;
70535;SDS011;58089;48.752;11.338;2023-11-22T12:49:14;11.38;;;4.90;;
70535;SDS011;58089;48.752;11.338;2023-11-22T12:51:45;9.13;;;4.33;;
70535;SDS011;58089;48.752;11.338;2023-11-22T12:54:11;11.75;;;5.15;;
70535;SDS011;58089;48.752;11.338;2023-11-22T12:56:37;9.60;;;4.33;;
70535;SDS011;58089;48.752;11.338;2023-11-22T12:59:02;10.37;;;4.33;;
70535;SDS011;58089;48.752;11.338;2023-11-22T13:01:29;8.50;;;4.22;;
70535;SDS011;58089;48.752;11.338;2023-11-22T13:03:54;7.97;;;3.97;;
70535;SDS011;58089;48.752;11.338;2023-11-22T13:06:19;10.10;;;5.23;;
70535;SDS011;58089;48.752;11.338;2023-11-22T13:08:45;8.67;;;4.50;;
70535;SDS011;58089;48.752;11.338;2023-11-22T13:11:10;9.53;;;4.83;;
70535;SDS011;58089;48.752;11.338;2023-11-22T13:13:35;8.00;;;4.10;;
70535;SDS011;58089;48.752;11.338;2023-11-22T13:16:01;11.63;;;4.80;;
70535;SDS011;58089;48.752;11.338;2023-11-22T13:18:30;8.52;;;4.00;;
70535;SDS011;58089;48.752;11.338;2023-11-22T13:20:55;9.80;;;4.83;;
70535;SDS011;58089;48.752;11.338;2023-11-22T13:23:21;11.32;;;5.22;;
70535;SDS011;58089;48.752;11.338;2023-11-22T13:25:46;11.83;;;5.97;;
70535;SDS011;58089;48.752;11.338;2023-11-22T13:28:11;15.30;;;6.73;;
70535;SDS011;58089;48.752;11.338;2023-11-22T13:30:37;9.80;;;4.47;;
70535;SDS011;58089;48.752;11.338;2023-11-22T13:33:02;9.47;;;4.50;;
70535;SDS011;58089;48.752;11.338;2023-11-22T13:35:28;8.40;;;3.78;;
70535;SDS011;58089;48.752;11.338;2023-11-22T13:37:59;7.67;;;3.80;;
70535;SDS011;58089;48.752;11.338;2023-11-22T13:40:25;7.22;;;3.42;;
70535;SDS011;58089;48.752;11.338;2023-11-22T13:42:55;7.95;;;3.97;;
70535;SDS011;58089;48.752;11.338;2023-11-22T13:45:21;7.45;;;3.60;;
70535;SDS011;58089;48.752;11.338;2023-11-22T13:47:47;8.83;;;4.07;;
70535;SDS011;58089;48.752;11.338;2023-11-22T13:50:14;7.47;;;3.85;;
70535;SDS011;58089;48.752;11.338;2023-11-22T13:52:46;9.05;;;4.47;;
70535;SDS011;58089;48.752;11.338;2023-11-22T13:55:15;9.93;;;5.05;;
70535;SDS011;58089;48.752;11.338;2023-11-22T13:57:42;9.52;;;5.05;;
70535;SDS011;58089;48.752;11.338;2023-11-22T14:00:09;9.77;;;4.93;;
70535;SDS011;58089;48.752;11.338;2023-11-22T14:02:46;9.57;;;5.30;;
70535;SDS011;58089;48.752;11.338;2023-11-22T14:05:18;8.85;;;4.35;;
70535;SDS011;58089;48.752;11.338;2023-11-22T14:07:43;8.43;;;4.68;;
70535;SDS011;58089;48.752;11.338;2023-11-22T14:10:09;10.13;;;3.80;;
70535;SDS011;58089;48.752;11.338;2023-11-22T14:12:36;11.63;;;4.47;;
70535;SDS011;58089;48.752;11.338;2023-11-22T14:15:01;9.50;;;4.27;;
70535;SDS011;58089;48.752;11.338;2023-11-22T14:17:29;8.95;;;4.47;;
70535;SDS011;58089;48.752;11.338;2023-11-22T14:19:55;9.77;;;4.60;;
70535;SDS011;58089;48.752;11.338;2023-11-22T14:22:20;9.67;;;4.87;;
70535;SDS011;58089;48.752;11.338;2023-11-22T14:24:47;11.10;;;5.95;;
70535;SDS011;58089;48.752;11.338;2023-11-22T14:27:13;10.63;;;5.07;;
70535;SDS011;58089;48.752;11.338;2023-11-22T14:29:39;10.17;;;5.30;;
70535;SDS011;58089;48.752;11.338;2023-11-22T14:32:05;9.98;;;4.97;;